Weather at Kaunas International Airport

Public forecast

Using degrees Celsius for public forecast. Weather courtesy of forecast.io.

Current aviation weather report (METAR) for Kaunas International Airport

2024/06/24 17:20 (retrieved 17 minutes ago)

EYKA 241720Z 28005KT 9999 FEW020 OVC047 20/17 Q1017

Aviation forecast (TAF) for Kaunas International Airport

2024/06/24 12:03 (retrieved 6 hours ago)

TAF TAF EYKA 241100Z 2412/2512 VRB05KT 9000 BKN030 TEMPO 2412/2419 SHRA BKN025CB TEMPO 2420/2504 0600 FG VV002 BECMG 2506/2508 NSC